createdAt,value
2022-09-06T00:03:12.552Z,0.00
2022-09-06T00:08:13.343Z,0.00
2022-09-06T00:13:14.076Z,0.00
2022-09-06T00:18:14.852Z,0.00
2022-09-06T00:23:15.591Z,0.00
2022-09-06T00:28:16.315Z,0.00
2022-09-06T00:33:17.093Z,0.00
2022-09-06T00:38:17.873Z,0.00
2022-09-06T00:43:18.566Z,0.00
2022-09-06T00:48:19.339Z,0.00
2022-09-06T00:53:20.052Z,0.00
2022-09-06T00:58:20.874Z,0.00
2022-09-06T01:03:21.603Z,0.00
2022-09-06T01:08:22.326Z,0.00
2022-09-06T01:13:23.135Z,0.00
2022-09-06T01:18:23.904Z,0.00
2022-09-06T01:23:24.594Z,0.00
2022-09-06T01:28:25.411Z,0.00
2022-09-06T01:33:26.127Z,0.00
2022-09-06T01:38:26.930Z,0.00
2022-09-06T01:43:27.689Z,0.00
2022-09-06T01:48:28.577Z,0.00
2022-09-06T01:53:29.342Z,0.00
2022-09-06T01:58:30.097Z,0.00
2022-09-06T02:03:30.843Z,0.00
2022-09-06T02:08:31.600Z,0.00
2022-09-06T02:13:32.340Z,0.00
2022-09-06T02:18:33.063Z,0.00
2022-09-06T02:23:33.864Z,0.00
2022-09-06T02:28:34.551Z,0.00
2022-09-06T02:33:35.349Z,0.00
2022-09-06T02:38:36.075Z,0.00
2022-09-06T02:43:36.812Z,0.00
2022-09-06T02:48:37.564Z,0.00
2022-09-06T02:53:38.316Z,0.00
2022-09-06T02:58:39.017Z,0.00
2022-09-06T03:03:39.848Z,0.00
2022-09-06T03:08:40.644Z,0.00
2022-09-06T03:13:41.456Z,0.00
2022-09-06T03:18:42.368Z,0.00
2022-09-06T03:23:43.151Z,0.00
2022-09-06T03:28:43.888Z,0.00
2022-09-06T03:33:44.688Z,0.00
2022-09-06T03:38:45.487Z,0.00
2022-09-06T03:43:46.168Z,0.00
2022-09-06T03:48:46.950Z,0.00
2022-09-06T03:53:47.815Z,0.00
2022-09-06T03:58:48.500Z,2.00
2022-09-06T04:03:49.314Z,1.00
2022-09-06T04:08:50.050Z,4.00
2022-09-06T04:13:50.719Z,9.00
2022-09-06T04:18:51.432Z,17.00
2022-09-06T04:23:52.116Z,44.00
2022-09-06T04:28:52.795Z,105.00
2022-09-06T04:33:53.499Z,124.00
2022-09-06T04:38:54.278Z,129.00
2022-09-06T04:44:02.029Z,237.00
2022-09-06T04:48:55.859Z,354.00
2022-09-06T04:53:56.818Z,438.00
2022-09-06T04:58:57.065Z,559.00
2022-09-06T05:03:57.777Z,698.00
2022-09-06T05:08:58.468Z,773.00
2022-09-06T05:13:59.214Z,664.00
2022-09-06T05:18:59.907Z,946.00
2022-09-06T05:24:00.701Z,1157.00
2022-09-06T05:29:01.385Z,1203.00
2022-09-06T05:34:02.085Z,1029.00
2022-09-06T05:39:02.779Z,1155.00
2022-09-06T05:44:03.517Z,1443.00
2022-09-06T05:49:04.166Z,1540.00
2022-09-06T05:54:04.943Z,1662.00
2022-09-06T05:59:05.615Z,1730.00
2022-09-06T06:04:06.350Z,1761.00
2022-09-06T06:09:07.000Z,1842.00
2022-09-06T06:14:07.684Z,1843.00
2022-09-06T06:19:08.372Z,1852.00
2022-09-06T06:24:09.059Z,1934.00
2022-09-06T06:29:09.788Z,2026.00
2022-09-06T06:34:10.428Z,1923.00
2022-09-06T06:39:11.111Z,2528.00
2022-09-06T06:44:11.806Z,2506.00
2022-09-06T06:49:12.483Z,2445.00
2022-09-06T06:54:13.166Z,3147.00
2022-09-06T06:59:13.865Z,3427.00
2022-09-06T07:04:14.549Z,3911.00
2022-09-06T07:09:15.205Z,3748.00
2022-09-06T07:14:15.907Z,4405.00
2022-09-06T07:24:18.130Z,4512.00
2022-09-06T07:29:17.810Z,3706.00
2022-09-06T07:34:18.499Z,4077.00
2022-09-06T07:39:19.189Z,3677.00
2022-09-06T07:44:19.866Z,3495.00
2022-09-06T07:49:20.562Z,3618.00
2022-09-06T07:54:36.656Z,4195.00
2022-09-06T07:59:22.811Z,4391.00
2022-09-06T08:04:22.489Z,4754.00
2022-09-06T08:09:23.165Z,4300.00
2022-09-06T08:14:23.867Z,4033.00
2022-09-06T08:19:24.536Z,3419.00
2022-09-06T08:24:25.212Z,4168.00
2022-09-06T08:29:25.882Z,3056.00
2022-09-06T08:34:26.555Z,4163.00
2022-09-06T08:39:27.265Z,3805.00
2022-09-06T08:49:29.461Z,4099.00
2022-09-06T08:54:29.145Z,4048.00
2022-09-06T08:59:29.823Z,1724.00
2022-09-06T09:04:30.502Z,4767.00
2022-09-06T09:09:31.191Z,5612.00
2022-09-06T09:14:31.874Z,5461.00
2022-09-06T09:19:32.559Z,3160.00
2022-09-06T09:24:33.239Z,5711.00
2022-09-06T09:29:36.425Z,4841.00
2022-09-06T09:34:34.652Z,4125.00
2022-09-06T09:39:35.368Z,4023.00
2022-09-06T09:44:36.008Z,6066.00
2022-09-06T09:49:36.678Z,4332.00
2022-09-06T09:54:37.375Z,4396.00
2022-09-06T09:59:38.072Z,4869.00
2022-09-06T10:09:39.376Z,5428.00
2022-09-06T10:14:40.036Z,4845.00
2022-09-06T10:19:40.721Z,5217.00
2022-09-06T10:24:41.392Z,4758.00
2022-09-06T10:29:42.087Z,4445.00
2022-09-06T10:34:42.950Z,5115.00
2022-09-06T10:39:43.657Z,5513.00
2022-09-06T10:44:51.333Z,6104.00
2022-09-06T10:49:45.009Z,6088.00
2022-09-06T10:54:45.698Z,5608.00
2022-09-06T10:59:47.559Z,5190.00
2022-09-06T11:09:48.471Z,4809.00
2022-09-06T11:14:48.229Z,5233.00
2022-09-06T11:19:48.916Z,5250.00
2022-09-06T11:24:49.603Z,5414.00
2022-09-06T11:29:50.348Z,5169.00
2022-09-06T11:34:51.183Z,4836.00
2022-09-06T11:44:53.406Z,4486.00
2022-09-06T11:49:53.171Z,4567.00
2022-09-06T11:54:53.818Z,4938.00
2022-09-06T11:59:54.489Z,4622.00
2022-09-06T12:04:57.174Z,4969.00
2022-09-06T12:09:55.765Z,4887.00
2022-09-06T12:14:56.416Z,4432.00
2022-09-06T12:19:57.150Z,5004.00
2022-09-06T12:24:57.782Z,4257.00
2022-09-06T12:29:58.726Z,4205.00
2022-09-06T12:40:01.069Z,4219.00
2022-09-06T12:45:00.709Z,3745.00
2022-09-06T12:50:01.372Z,4628.00
2022-09-06T12:55:02.052Z,4892.00
2022-09-06T13:00:02.936Z,5013.00
2022-09-06T13:05:03.622Z,5137.00
2022-09-06T13:10:04.307Z,4649.00
2022-09-06T13:15:05.070Z,5547.00
2022-09-06T13:20:05.772Z,5039.00
2022-09-06T13:25:06.437Z,6072.00
2022-09-06T13:30:07.115Z,5999.00
2022-09-06T13:35:08.121Z,5176.00
2022-09-06T13:40:08.366Z,4973.00
2022-09-06T13:45:08.996Z,4775.00
2022-09-06T13:50:09.740Z,5419.00
2022-09-06T13:55:10.387Z,5294.00
2022-09-06T14:00:11.914Z,3824.00
2022-09-06T14:05:11.621Z,7306.00
2022-09-06T14:10:12.235Z,7364.00
2022-09-06T14:15:12.891Z,6233.00
2022-09-06T14:20:14.661Z,4142.00
2022-09-06T14:25:14.400Z,5480.00
2022-09-06T14:30:15.112Z,4537.00
2022-09-06T14:35:15.717Z,3539.00
2022-09-06T14:40:16.493Z,4182.00
2022-09-06T14:45:17.569Z,4335.00
2022-09-06T14:50:17.779Z,5479.00
2022-09-06T14:55:18.533Z,5806.00
2022-09-06T15:00:19.145Z,4549.00
2022-09-06T15:05:19.994Z,4592.00
2022-09-06T15:10:20.693Z,3349.00
2022-09-06T15:15:21.374Z,3631.00
2022-09-06T15:20:21.964Z,3325.00
2022-09-06T15:25:22.898Z,3374.00
2022-09-06T15:30:23.645Z,3990.00
2022-09-06T15:35:24.316Z,3968.00
2022-09-06T15:40:24.965Z,2915.00
2022-09-06T15:45:25.707Z,3624.00
2022-09-06T15:50:49.750Z,3036.00
2022-09-06T15:55:27.898Z,2710.00
2022-09-06T16:00:27.559Z,2609.00
2022-09-06T16:10:29.782Z,2166.00
2022-09-06T16:15:29.525Z,1816.00
2022-09-06T16:20:33.338Z,1558.00
2022-09-06T16:25:31.302Z,1387.00
2022-09-06T16:30:32.039Z,1376.00
2022-09-06T16:35:32.676Z,1259.00
2022-09-06T16:40:33.341Z,1060.00
2022-09-06T16:45:34.000Z,852.00
2022-09-06T16:50:41.670Z,702.00
2022-09-06T16:55:35.342Z,618.00
2022-09-06T17:00:36.058Z,562.00
2022-09-06T17:05:36.720Z,506.00
2022-09-06T17:10:37.504Z,506.00
2022-09-06T17:15:38.341Z,422.00
2022-09-06T17:20:39.114Z,326.00
2022-09-06T17:25:39.746Z,233.00
2022-09-06T17:30:40.708Z,154.00
2022-09-06T17:35:41.389Z,103.00
2022-09-06T17:40:42.140Z,69.00
2022-09-06T17:45:42.914Z,52.00
2022-09-06T17:50:43.657Z,34.00
2022-09-06T17:55:44.406Z,19.00
2022-09-06T18:00:45.083Z,11.00
2022-09-06T18:05:45.780Z,4.00
2022-09-06T18:10:46.562Z,1.00
2022-09-06T18:15:47.448Z,0.00
2022-09-06T18:20:48.311Z,0.00
2022-09-06T18:25:49.009Z,0.00
2022-09-06T18:30:49.784Z,0.00
2022-09-06T18:35:50.506Z,0.00
2022-09-06T18:40:51.311Z,0.00
2022-09-06T18:45:52.099Z,0.00
2022-09-06T18:50:55.812Z,0.00
2022-09-06T18:55:54.520Z,0.00
2022-09-06T19:00:54.286Z,0.00
2022-09-06T19:05:55.002Z,0.00
2022-09-06T19:10:55.835Z,0.00
2022-09-06T19:15:56.608Z,0.00
2022-09-06T19:20:57.297Z,0.00
2022-09-06T19:25:58.076Z,0.00
2022-09-06T19:30:58.857Z,0.00
2022-09-06T19:36:10.982Z,0.00
2022-09-06T19:41:01.205Z,0.00
2022-09-06T19:46:01.027Z,0.00
2022-09-06T19:51:01.835Z,0.00
2022-09-06T19:56:02.596Z,0.00
2022-09-06T20:01:03.400Z,0.00
2022-09-06T20:06:04.194Z,0.00
2022-09-06T20:11:04.966Z,0.00
2022-09-06T20:16:05.783Z,0.00
2022-09-06T20:21:06.506Z,0.00
2022-09-06T20:26:07.370Z,0.00
2022-09-06T20:31:08.136Z,0.00
2022-09-06T20:36:08.847Z,0.00
2022-09-06T20:41:09.599Z,0.00
2022-09-06T20:46:10.438Z,0.00
2022-09-06T20:51:11.219Z,0.00
2022-09-06T20:56:11.939Z,0.00
2022-09-06T21:01:12.736Z,0.00
2022-09-06T21:06:13.441Z,0.00
2022-09-06T21:11:14.178Z,0.00
2022-09-06T21:16:14.982Z,0.00
2022-09-06T21:21:15.712Z,0.00
2022-09-06T21:26:16.454Z,0.00
2022-09-06T21:31:17.237Z,0.00
2022-09-06T21:36:17.950Z,0.00
2022-09-06T21:41:18.652Z,0.00
2022-09-06T21:46:19.442Z,0.00
2022-09-06T21:51:20.150Z,0.00
2022-09-06T21:56:20.902Z,0.00
2022-09-06T22:01:21.688Z,0.00
2022-09-06T22:06:22.402Z,0.00
2022-09-06T22:11:23.137Z,0.00
2022-09-06T22:16:23.925Z,0.00
2022-09-06T22:21:24.688Z,0.00
2022-09-06T22:26:25.426Z,0.00
2022-09-06T22:31:26.203Z,0.00
2022-09-06T22:36:26.912Z,0.00
2022-09-06T22:41:27.650Z,0.00
2022-09-06T22:46:28.460Z,0.00
2022-09-06T22:51:36.220Z,0.00
2022-09-06T22:56:30.009Z,0.00
2022-09-06T23:01:30.856Z,0.00
2022-09-06T23:06:31.696Z,0.00
2022-09-06T23:11:32.567Z,0.00
2022-09-06T23:16:33.352Z,0.00
2022-09-06T23:21:34.146Z,0.00
2022-09-06T23:26:34.894Z,0.00
2022-09-06T23:31:35.695Z,0.00
2022-09-06T23:36:36.455Z,0.00
2022-09-06T23:41:37.187Z,0.00
2022-09-06T23:46:37.997Z,0.00
2022-09-06T23:51:38.742Z,0.00
2022-09-06T23:56:39.487Z,0.00
